createdAt,value
2019-04-20T00:00:59.901Z,4.47
2019-04-20T00:05:03.394Z,4.67
2019-04-20T00:09:15.441Z,4.10
2019-04-20T00:13:24.466Z,4.77
2019-04-20T00:17:17.851Z,4.63
2019-04-20T00:21:42.722Z,4.10
2019-04-20T00:26:11.064Z,4.77
2019-04-20T00:30:28.548Z,4.63
2019-04-20T00:34:18.336Z,4.37
2019-04-20T00:38:14.524Z,4.70
2019-04-20T00:42:19.389Z,4.83
2019-04-20T00:46:29.278Z,5.47
2019-04-20T00:50:40.377Z,5.83
2019-04-20T00:54:30.574Z,6.47
2019-04-20T00:58:48.336Z,5.53
2019-04-20T01:02:50.638Z,6.60
2019-04-20T01:07:12.298Z,5.90
2019-04-20T01:11:05.994Z,7.17
2019-04-20T01:15:16.646Z,5.30
2019-04-20T01:19:15.861Z,6.60
2019-04-20T01:23:22.309Z,6.27
2019-04-20T01:27:37.562Z,6.30
2019-04-20T01:31:36.329Z,6.47
2019-04-20T01:35:52.068Z,5.83
2019-04-20T01:39:43.499Z,5.70
2019-04-20T01:43:41.548Z,5.87
2019-04-20T01:47:50.877Z,5.73
2019-04-20T01:51:57.431Z,5.10
2019-04-20T01:56:12.539Z,4.80
2019-04-20T02:00:11.122Z,4.70
2019-04-20T02:04:20.521Z,4.57
2019-04-20T02:08:21.470Z,4.83
2019-04-20T02:12:28.664Z,5.47
2019-04-20T02:16:35.694Z,5.03
2019-04-20T02:20:53.256Z,5.17
2019-04-20T02:24:37.486Z,4.77
2019-04-20T02:29:07.703Z,4.93
2019-04-20T02:33:29.424Z,4.97
2019-04-20T02:37:48.975Z,5.07
2019-04-20T02:45:47.144Z,5.20
2019-04-20T02:50:06.945Z,5.97
2019-04-20T02:54:15.080Z,4.80
2019-04-20T03:01:53.466Z,5.53
2019-04-20T03:05:46.074Z,5.37
2019-04-20T03:10:01.102Z,5.80
2019-04-20T03:14:03.660Z,5.20
2019-04-20T03:18:17.942Z,5.33
2019-04-20T03:22:27.333Z,5.40
2019-04-20T03:26:34.021Z,4.80
2019-04-20T03:31:26.904Z,5.13
2019-04-20T03:38:57.261Z,6.07
2019-04-20T03:42:42.934Z,4.90
2019-04-20T03:46:53.111Z,5.40
2019-04-20T03:51:14.876Z,4.73
2019-04-20T03:55:35.652Z,4.97
2019-04-20T04:00:24.987Z,5.00
2019-04-20T04:04:38.252Z,5.23
2019-04-20T04:08:32.922Z,5.00
2019-04-20T04:13:09.595Z,5.20
2019-04-20T04:17:19.343Z,5.13
2019-04-20T04:21:27.136Z,5.33
2019-04-20T04:25:33.563Z,5.10
2019-04-20T04:29:46.804Z,5.30
2019-04-20T04:33:55.859Z,5.03
2019-04-20T04:37:53.561Z,5.13
2019-04-20T04:42:12.787Z,5.67
2019-04-20T04:45:44.725Z,5.57
2019-04-20T04:49:55.236Z,4.93
2019-04-20T04:54:00.070Z,5.20
2019-04-20T04:57:56.248Z,5.63
2019-04-20T05:02:00.488Z,5.67
2019-04-20T05:06:22.033Z,5.07
2019-04-20T05:10:13.928Z,4.43
2019-04-20T05:14:24.214Z,4.57
2019-04-20T05:18:45.090Z,4.97
2019-04-20T05:22:51.305Z,3.93
2019-04-20T05:27:09.418Z,3.70
2019-04-20T05:30:54.974Z,4.30
2019-04-20T05:35:14.974Z,3.90
2019-04-20T05:39:26.587Z,3.87
2019-04-20T05:43:27.524Z,3.33
2019-04-20T05:47:36.227Z,3.47
2019-04-20T05:51:39.682Z,3.53
2019-04-20T05:55:43.081Z,3.30
2019-04-20T05:59:56.204Z,3.37
2019-04-20T06:03:51.261Z,3.13
2019-04-20T06:08:00.747Z,2.97
2019-04-20T06:12:14.468Z,3.10
2019-04-20T06:16:14.176Z,3.20
2019-04-20T06:20:27.138Z,3.30
2019-04-20T06:24:42.163Z,2.67
2019-04-20T06:28:30.170Z,2.60
2019-04-20T06:33:21.791Z,2.47
2019-04-20T06:37:19.439Z,2.17
2019-04-20T06:41:37.928Z,2.60
2019-04-20T06:45:33.547Z,2.27
2019-04-20T06:49:33.453Z,2.20
2019-04-20T06:53:45.563Z,2.27
2019-04-20T06:57:46.399Z,2.20
2019-04-20T07:01:56.908Z,1.83
2019-04-20T07:06:17.919Z,2.17
2019-04-20T07:10:11.024Z,2.20
2019-04-20T07:13:53.460Z,2.03
2019-04-20T07:18:08.157Z,1.90
2019-04-20T07:22:32.068Z,2.23
2019-04-20T07:26:24.402Z,1.80
2019-04-20T07:30:24.139Z,1.67
2019-04-20T07:34:26.576Z,1.90
2019-04-20T07:38:40.228Z,1.53
2019-04-20T07:42:41.198Z,1.70
2019-04-20T07:46:57.263Z,2.00
2019-04-20T07:50:42.118Z,2.10
2019-04-20T07:55:12.205Z,1.60
2019-04-20T07:58:45.959Z,1.80
2019-04-20T08:07:13.621Z,1.90
2019-04-20T08:11:36.817Z,1.63
2019-04-20T08:19:40.813Z,1.70
2019-04-20T08:24:02.493Z,1.47
2019-04-20T08:27:48.851Z,1.53
2019-04-20T08:32:17.845Z,1.77
2019-04-20T08:36:30.141Z,1.50
2019-04-20T08:40:34.196Z,1.50
2019-04-20T08:48:43.595Z,1.30
2019-04-20T08:53:03.791Z,1.53
2019-04-20T08:56:36.056Z,1.40
2019-04-20T09:00:38.707Z,1.73
2019-04-20T09:04:45.189Z,1.13
2019-04-20T09:08:50.709Z,1.43
2019-04-20T09:12:58.361Z,1.37
2019-04-20T09:17:00.067Z,1.80
2019-04-20T09:21:03.372Z,1.77
2019-04-20T09:25:50.078Z,1.57
2019-04-20T09:29:16.010Z,1.50
2019-04-20T09:33:48.428Z,1.80
2019-04-20T09:37:53.016Z,1.97
2019-04-20T09:42:00.680Z,2.00
2019-04-20T09:46:02.034Z,1.67
2019-04-20T09:50:19.713Z,1.83
2019-04-20T09:54:25.797Z,1.87
2019-04-20T09:58:26.271Z,1.70
2019-04-20T10:02:24.127Z,1.90
2019-04-20T10:06:24.947Z,1.70
2019-04-20T10:10:32.190Z,1.90
2019-04-20T10:14:31.033Z,1.80
2019-04-20T10:18:39.356Z,1.60
2019-04-20T10:22:38.405Z,1.93
2019-04-20T10:26:40.982Z,1.60
2019-04-20T10:30:44.438Z,1.70
2019-04-20T10:34:46.845Z,1.90
2019-04-20T10:38:49.058Z,1.73
2019-04-20T10:42:53.440Z,1.57
2019-04-20T10:46:56.573Z,1.23
2019-04-20T10:50:59.014Z,1.53
2019-04-20T10:55:02.764Z,1.37
2019-04-20T10:59:05.579Z,1.90
2019-04-20T11:03:08.146Z,1.73
2019-04-20T11:07:10.523Z,1.30
2019-04-20T11:11:21.319Z,1.40
2019-04-20T11:15:18.406Z,1.43
2019-04-20T11:19:21.251Z,1.53
2019-04-20T11:23:24.452Z,1.13
2019-04-20T11:27:28.012Z,1.20
2019-04-20T11:31:37.255Z,1.20
2019-04-20T11:35:39.234Z,1.30
2019-04-20T11:39:39.248Z,1.60
2019-04-20T11:43:42.124Z,1.73
2019-04-20T11:47:47.289Z,1.60
2019-04-20T11:51:50.027Z,1.47
2019-04-20T11:55:54.236Z,1.87
2019-04-20T11:59:57.165Z,1.63
2019-04-20T12:04:09.261Z,1.80
2019-04-20T12:08:07.049Z,1.77
2019-04-20T12:12:23.471Z,1.60
2019-04-20T12:16:14.984Z,1.53
2019-04-20T12:20:18.749Z,1.77
2019-04-20T12:24:22.528Z,1.40
2019-04-20T12:28:25.625Z,1.80
2019-04-20T12:32:36.452Z,1.40
2019-04-20T12:36:33.212Z,1.67
2019-04-20T12:40:37.821Z,1.57
2019-04-20T12:44:41.796Z,1.97
2019-04-20T12:48:44.515Z,2.30
2019-04-20T12:52:48.406Z,1.63
2019-04-20T12:56:51.022Z,2.20
2019-04-20T13:00:54.571Z,1.80
2019-04-20T13:04:57.476Z,1.47
2019-04-20T13:09:02.181Z,1.60
2019-04-20T13:13:32.404Z,1.30
2019-04-20T13:17:35.042Z,1.40
2019-04-20T13:21:38.920Z,2.03
2019-04-20T13:25:43.333Z,1.40
2019-04-20T13:29:49.167Z,1.53
2019-04-20T13:33:51.664Z,1.50
2019-04-20T13:37:56.212Z,1.90
2019-04-20T13:42:10.317Z,1.30
2019-04-20T13:46:09.289Z,1.67
2019-04-20T13:50:14.450Z,2.07
2019-04-20T13:54:22.974Z,1.57
2019-04-20T13:58:43.606Z,1.43
2019-04-20T14:02:54.341Z,1.90
2019-04-20T14:06:59.497Z,1.60
2019-04-20T14:11:05.178Z,1.70
2019-04-20T14:15:11.188Z,1.97
2019-04-20T14:19:16.518Z,1.63
2019-04-20T14:23:21.146Z,1.50
2019-04-20T14:27:24.599Z,1.43
2019-04-20T14:31:28.222Z,2.13
2019-04-20T14:35:30.815Z,1.67
2019-04-20T14:39:34.230Z,1.87
2019-04-20T14:43:38.109Z,1.93
2019-04-20T14:47:43.699Z,1.80
2019-04-20T14:51:48.248Z,2.03
2019-04-20T14:55:53.693Z,2.03
2019-04-20T15:00:05.606Z,2.37
2019-04-20T15:04:16.710Z,3.07
2019-04-20T15:08:18.493Z,2.40
2019-04-20T15:12:37.874Z,2.50
2019-04-20T15:16:30.752Z,2.20
2019-04-20T15:20:39.487Z,4.77
2019-04-20T15:24:43.273Z,2.37
2019-04-20T15:28:48.231Z,2.60
2019-04-20T15:32:54.404Z,1.97
2019-04-20T15:36:58.199Z,2.20
2019-04-20T15:41:00.832Z,2.27
2019-04-20T15:45:05.293Z,2.40
2019-04-20T15:49:08.272Z,2.47
2019-04-20T15:53:11.395Z,2.63
2019-04-20T15:57:20.382Z,2.60
2019-04-20T16:01:20.689Z,2.10
2019-04-20T16:05:41.053Z,2.40
2019-04-20T16:09:44.318Z,2.67
2019-04-20T16:13:50.396Z,2.20
2019-04-20T16:17:53.265Z,2.40
2019-04-20T16:21:57.505Z,2.50
2019-04-20T16:26:17.853Z,2.10
2019-04-20T16:30:20.517Z,2.40
2019-04-20T16:34:23.416Z,2.70
2019-04-20T16:38:28.521Z,2.90
2019-04-20T16:42:30.277Z,2.83
2019-04-20T16:46:34.227Z,2.53
2019-04-20T16:50:37.160Z,2.60
2019-04-20T16:54:41.771Z,2.50
2019-04-20T16:58:48.291Z,2.27
2019-04-20T17:02:50.081Z,2.37
2019-04-20T17:07:10.463Z,2.20
2019-04-20T17:11:14.401Z,2.37
2019-04-20T17:15:19.732Z,2.40
2019-04-20T17:19:23.788Z,2.37
2019-04-20T17:23:27.401Z,2.53
2019-04-20T17:27:44.709Z,2.33
2019-04-20T17:32:08.039Z,2.47
2019-04-20T17:36:18.810Z,2.70
2019-04-20T17:40:36.828Z,2.67
2019-04-20T17:44:35.936Z,2.60
2019-04-20T17:48:36.097Z,3.00
2019-04-20T17:52:51.003Z,2.47
2019-04-20T17:56:38.401Z,3.00
2019-04-20T18:01:03.653Z,3.43
2019-04-20T18:05:37.104Z,3.00
2019-04-20T18:09:38.642Z,3.03
2019-04-20T18:13:24.005Z,2.73
2019-04-20T18:18:02.713Z,3.20
2019-04-20T18:21:58.302Z,2.70
2019-04-20T18:26:24.183Z,3.30
2019-04-20T18:30:23.901Z,3.20
2019-04-20T18:34:47.252Z,2.73
2019-04-20T18:38:56.698Z,3.47
2019-04-20T18:42:56.636Z,3.73
2019-04-20T18:47:21.683Z,3.80
2019-04-20T18:50:59.701Z,3.47
2019-04-20T18:55:06.355Z,3.20
2019-04-20T18:59:09.263Z,3.93
2019-04-20T19:03:20.292Z,3.40
2019-04-20T19:07:17.552Z,3.57
2019-04-20T19:11:23.176Z,3.97
2019-04-20T19:16:01.970Z,3.63
2019-04-20T19:19:57.030Z,3.40
2019-04-20T19:24:06.831Z,3.43
2019-04-20T19:28:05.646Z,3.90
2019-04-20T19:32:25.015Z,3.70
2019-04-20T19:36:25.570Z,3.50
2019-04-20T19:40:31.293Z,3.97
2019-04-20T19:44:38.148Z,4.83
2019-04-20T19:48:39.637Z,4.43
2019-04-20T19:52:56.032Z,4.10
2019-04-20T19:56:48.597Z,3.67
2019-04-20T20:00:59.902Z,4.57
2019-04-20T20:05:08.226Z,4.47
2019-04-20T20:09:12.247Z,4.20
2019-04-20T20:13:14.984Z,4.70
2019-04-20T20:17:40.299Z,3.97
2019-04-20T20:21:32.865Z,4.00
2019-04-20T20:25:32.986Z,4.00
2019-04-20T20:29:39.716Z,3.90
2019-04-20T20:33:49.686Z,4.70
2019-04-20T20:37:48.040Z,4.33
2019-04-20T20:41:54.728Z,4.93
2019-04-20T20:46:01.201Z,4.37
2019-04-20T20:50:22.622Z,4.67
2019-04-20T20:54:05.392Z,5.00
2019-04-20T20:58:13.805Z,4.30
2019-04-20T21:02:18.005Z,4.10
2019-04-20T21:06:11.864Z,4.20
2019-04-20T21:10:22.824Z,4.70
2019-04-20T21:14:22.018Z,5.00
2019-04-20T21:18:43.676Z,4.47
2019-04-20T21:22:50.302Z,4.77
2019-04-20T21:26:39.191Z,5.40
2019-04-20T21:30:44.694Z,5.33
2019-04-20T21:34:51.313Z,4.77
2019-04-20T21:38:49.931Z,6.50
2019-04-20T21:42:59.212Z,4.93
2019-04-20T21:46:58.610Z,5.60
2019-04-20T21:51:16.619Z,5.33
2019-04-20T21:55:08.019Z,5.40
2019-04-20T21:59:20.702Z,6.47
2019-04-20T22:03:18.410Z,7.00
2019-04-20T22:07:21.056Z,6.70
2019-04-20T22:11:24.120Z,6.73
2019-04-20T22:15:31.923Z,6.93
2019-04-20T22:19:42.185Z,6.73
2019-04-20T22:23:53.125Z,6.50
2019-04-20T22:27:40.548Z,6.80
2019-04-20T22:31:45.234Z,6.77
2019-04-20T22:35:51.545Z,6.03
2019-04-20T22:39:55.871Z,5.97
2019-04-20T22:43:56.630Z,6.33
2019-04-20T22:48:05.845Z,5.93
2019-04-20T22:52:18.425Z,6.07
2019-04-20T22:56:26.890Z,6.20
2019-04-20T23:00:21.722Z,5.90
2019-04-20T23:04:21.171Z,6.03
2019-04-20T23:08:24.750Z,6.80
2019-04-20T23:12:29.253Z,6.57
2019-04-20T23:16:37.907Z,6.17
2019-04-20T23:20:39.448Z,6.50
2019-04-20T23:24:41.634Z,6.70
2019-04-20T23:28:48.235Z,5.57
2019-04-20T23:32:49.754Z,5.87
2019-04-20T23:36:52.597Z,6.10
2019-04-20T23:40:55.625Z,5.63
2019-04-20T23:45:09.554Z,5.50
2019-04-20T23:49:53.806Z,6.40
2019-04-20T23:53:48.256Z,5.93
2019-04-20T23:57:41.956Z,5.80
